Time;durP1;ratioP1;P1;durP2;ratioP2;P2;SDS_P1;SDS_P2;PMS_P1;PMS_P2;Temp;Humidity;BMP_temperature;BMP_pressure;BME280_temperature;BME280_humidity;BME280_pressure;Samples;Min_cycle;Max_cycle;Signal;HPM_P1;HPM_P2
2022/05/07 00:02:07;;;;;;;6.82;3.45;;;9.20;85.20;9.60;99650.00;;;;4884266;28;87556;-64
2022/05/07 00:04:37;;;;;;;7.88;3.88;;;9.20;85.40;9.60;99652.00;;;;4888172;28;86321;-64
2022/05/07 00:07:07;;;;;;;7.17;3.03;;;9.10;85.30;9.60;99659.00;;;;4887862;28;87933;-64
2022/05/07 00:09:35;;;;;;;5.60;3.03;;;9.20;85.70;9.60;99649.00;;;;4887599;28;87334;-64
2022/05/07 00:12:02;;;;;;;7.78;3.10;;;9.10;85.70;9.60;99655.00;;;;4886987;28;88801;-64
2022/05/07 00:14:28;;;;;;;8.60;3.15;;;9.20;86.90;9.60;99656.00;;;;4886929;28;87003;-64
2022/05/07 00:19:39;;;;;;;7.60;3.08;;;9.10;86.70;9.60;99655.00;;;;4887590;28;87520;-64
2022/05/07 00:22:05;;;;;;;5.70;2.90;;;9.10;86.80;9.60;99651.00;;;;4888047;28;87505;-64
2022/05/07 00:24:31;;;;;;;11.57;3.00;;;9.20;86.90;9.60;99661.00;;;;4887489;28;87148;-64
2022/05/07 00:26:57;;;;;;;6.00;2.90;;;9.10;86.80;9.60;99660.00;;;;4887693;28;87791;-64
2022/05/07 00:29:24;;;;;;;7.95;3.13;;;9.10;86.90;9.50;99654.00;;;;4871126;28;87319;-64
2022/05/07 00:31:50;;;;;;;5.82;3.08;;;9.10;88.30;9.50;99654.00;;;;4870163;28;86976;-64
2022/05/07 00:34:16;;;;;;;6.78;3.20;;;9.00;88.10;9.40;99663.00;;;;4886828;28;87024;-64
2022/05/07 00:36:42;;;;;;;8.00;2.97;;;9.00;88.90;9.30;99653.00;;;;4869558;28;89067;-64
2022/05/07 00:39:09;;;;;;;6.82;3.15;;;8.90;90.00;9.30;99660.00;;;;4869228;28;89741;-64
2022/05/07 00:41:39;;;;;;;6.90;3.42;;;8.90;90.10;9.30;99667.00;;;;4887324;28;86923;-64
2022/05/07 00:44:06;;;;;;;9.07;3.45;;;8.90;90.50;9.30;99664.00;;;;4887334;28;87421;-64
2022/05/07 00:46:33;;;;;;;8.15;3.65;;;8.80;90.80;9.30;99653.00;;;;4870414;28;87531;-64
2022/05/07 00:48:59;;;;;;;5.97;2.78;;;8.80;90.60;9.30;99651.00;;;;4885922;28;87341;-65
2022/05/07 00:51:35;;;;;;;7.97;3.35;;;8.80;90.70;9.30;99664.00;;;;4855455;28;87087;-63
2022/05/07 00:54:07;;;;;;;5.00;2.63;;;8.90;90.50;9.30;99658.00;;;;4856662;28;86178;-64
2022/05/07 00:56:39;;;;;;;9.32;2.92;;;8.90;90.80;9.30;99657.00;;;;4849367;28;87659;-66
2022/05/07 00:59:06;;;;;;;4.77;2.97;;;8.90;90.90;9.40;99654.00;;;;4885925;28;87239;-65
2022/05/07 01:01:32;;;;;;;5.40;2.70;;;8.90;90.90;9.40;99651.00;;;;4886599;28;87915;-65
2022/05/07 01:04:00;;;;;;;7.15;3.05;;;9.00;90.80;9.50;99651.00;;;;4869912;28;87019;-64
2022/05/07 01:06:30;;;;;;;7.07;3.35;;;9.00;90.70;9.50;99660.00;;;;4870179;28;90037;-64
2022/05/07 01:08:57;;;;;;;7.78;2.90;;;9.00;90.80;9.50;99655.00;;;;4870219;28;87006;-65
2022/05/07 01:11:26;;;;;;;6.93;3.25;;;9.00;90.80;9.50;99657.00;;;;4870025;28;87135;-64
2022/05/07 01:13:57;;;;;;;4.50;2.72;;;9.10;91.00;9.50;99658.00;;;;4870283;28;86959;-64
2022/05/07 01:16:25;;;;;;;6.68;3.20;;;9.00;90.90;9.50;99660.00;;;;4886014;28;88225;-63
2022/05/07 01:18:52;;;;;;;7.13;3.10;;;9.10;91.00;9.50;99653.00;;;;4869896;28;87378;-64
2022/05/07 01:21:18;;;;;;;6.95;3.00;;;9.10;91.80;9.60;99650.00;;;;4887484;28;86932;-64
2022/05/07 01:23:48;;;;;;;7.55;3.30;;;9.10;91.20;9.60;99658.00;;;;4869497;28;87012;-64
2022/05/07 01:26:20;;;;;;;7.50;3.05;;;9.10;91.10;9.60;99645.00;;;;4853607;28;89731;-64
2022/05/07 01:28:47;;;;;;;7.15;2.95;;;9.10;91.00;9.60;99651.00;;;;4888918;28;88403;-64
2022/05/07 01:31:14;;;;;;;7.82;3.00;;;9.20;91.20;9.60;99646.00;;;;4869656;28;86963;-64
2022/05/07 01:33:40;;;;;;;13.85;3.20;;;9.10;91.10;9.60;99646.00;;;;4885994;28;86869;-64
2022/05/07 01:36:16;;;;;;;5.95;3.13;;;9.10;91.60;9.60;99654.00;;;;4868885;28;87805;-64
2022/05/07 01:38:43;;;;;;;11.27;3.55;;;9.20;91.40;9.60;99649.00;;;;4868986;28;88028;-65
2022/05/07 01:41:09;;;;;;;7.05;3.20;;;9.20;91.60;9.60;99652.00;;;;4884504;28;87226;-64
2022/05/07 01:43:38;;;;;;;8.55;3.33;;;9.10;91.20;9.60;99647.00;;;;4869360;28;86381;-63
2022/05/07 01:48:09;;;;;;;8.02;2.70;;;9.20;91.40;9.70;99654.00;;;;4885881;28;89410;-64
2022/05/07 01:48:51;;;;;;;6.60;3.15;;;9.10;91.20;9.60;99648.00;;;;4885147;28;89029;-64
2022/05/07 01:51:17;;;;;;;6.30;2.72;;;9.10;91.50;9.60;99656.00;;;;4869613;28;87914;-64
2022/05/07 01:53:43;;;;;;;8.70;3.05;;;9.10;91.70;9.60;99651.00;;;;4869529;28;87181;-64
2022/05/07 01:56:09;;;;;;;8.48;3.03;;;9.10;91.80;9.50;99659.00;;;;4878025;28;87425;-63
2022/05/07 01:58:42;;;;;;;9.15;3.17;;;9.00;91.90;9.60;99657.00;;;;4869572;28;87356;-63
2022/05/07 02:01:10;;;;;;;10.05;3.33;;;9.00;91.80;9.60;99644.00;;;;4852822;28;87007;-63
2022/05/07 02:03:38;;;;;;;9.02;3.22;;;9.10;91.80;9.60;99650.00;;;;4883980;28;87872;-64
2022/05/07 02:06:04;;;;;;;8.98;2.85;;;9.10;92.10;9.60;99655.00;;;;4868493;28;87517;-64
2022/05/07 02:08:31;;;;;;;7.40;3.00;;;9.10;92.20;9.60;99651.00;;;;4869091;28;86881;-63
2022/05/07 02:11:00;;;;;;;6.75;3.22;;;9.10;92.60;9.60;99660.00;;;;4868167;28;88052;-64
2022/05/07 02:13:28;;;;;;;8.70;3.00;;;9.10;92.50;9.60;99657.00;;;;4868469;28;87027;-64
2022/05/07 02:15:55;;;;;;;6.20;3.10;;;9.10;92.20;9.60;99658.00;;;;4868131;28;89725;-64
2022/05/07 02:18:21;;;;;;;6.88;3.00;;;9.10;92.10;9.60;99659.00;;;;4869235;28;88351;-64
2022/05/07 02:20:47;;;;;;;8.00;3.00;;;9.10;92.60;9.60;99651.00;;;;4885967;28;87119;-64
2022/05/07 02:23:13;;;;;;;7.53;3.03;;;9.10;92.40;9.60;99664.00;;;;4869492;28;87032;-64
2022/05/07 02:25:39;;;;;;;5.78;2.92;;;9.10;92.40;9.70;99659.00;;;;4868621;28;87556;-64
2022/05/07 02:28:06;;;;;;;7.22;3.97;;;9.10;92.40;9.70;99667.00;;;;4869003;28;87258;-64
2022/05/07 02:30:33;;;;;;;5.00;2.95;;;9.20;92.50;9.70;99662.00;;;;4869092;28;87584;-64
2022/05/07 02:33:04;;;;;;;6.03;3.20;;;9.10;92.30;9.70;99667.00;;;;4886169;28;86267;-64
2022/05/07 02:35:33;;;;;;;6.47;2.83;;;9.20;92.20;9.70;99667.00;;;;4883412;28;87103;-63
2022/05/07 02:38:00;;;;;;;7.60;2.67;;;9.20;92.20;9.70;99666.00;;;;4883674;28;87273;-64
2022/05/07 02:40:27;;;;;;;7.90;3.22;;;9.20;92.20;9.70;99667.00;;;;4852227;28;88015;-64
2022/05/07 02:42:55;;;;;;;9.65;3.30;;;9.20;91.90;9.80;99658.00;;;;4868869;28;87296;-63
2022/05/07 02:45:22;;;;;;;7.57;2.97;;;9.20;92.60;9.80;99670.00;;;;4868883;28;87768;-64
2022/05/07 02:48:00;;;;;;;6.90;2.90;;;9.30;91.90;9.90;99660.00;;;;4885553;28;87338;-64
2022/05/07 02:50:28;;;;;;;5.20;2.60;;;9.30;91.90;9.90;99666.00;;;;4868977;28;86998;-63
2022/05/07 02:52:54;;;;;;;8.27;3.50;;;9.30;92.20;10.00;99676.00;;;;4868742;28;87050;-64
2022/05/07 02:55:21;;;;;;;9.15;2.95;;;9.40;91.90;10.00;99668.00;;;;4868129;28;87771;-64
2022/05/07 02:57:53;;;;;;;6.22;2.90;;;9.40;92.00;10.00;99674.00;;;;4868992;28;87388;-64
2022/05/07 03:00:21;;;;;;;8.30;3.17;;;9.50;91.70;10.00;99666.00;;;;4868590;28;87067;-64
2022/05/07 03:02:47;;;;;;;8.18;3.10;;;9.50;92.00;10.10;99667.00;;;;4884026;28;88042;-64
2022/05/07 03:05:14;;;;;;;6.82;3.00;;;9.50;91.40;10.10;99667.00;;;;4867905;28;88572;-64
2022/05/07 03:07:40;;;;;;;12.10;3.85;;;9.60;91.50;10.20;99676.00;;;;4867829;28;88334;-63
2022/05/07 03:10:14;;;;;;;9.50;3.38;;;9.60;91.50;10.30;99682.00;;;;4868762;28;86948;-63
2022/05/07 03:12:40;;;;;;;6.85;3.65;;;9.70;91.20;10.40;99669.00;;;;4885300;28;87231;-63
2022/05/07 03:15:07;;;;;;;10.55;3.35;;;9.80;91.70;10.50;99663.00;;;;4868193;28;87064;-64
2022/05/07 03:17:34;;;;;;;7.60;3.60;;;9.80;90.70;10.50;99674.00;;;;4867604;28;88239;-63
2022/05/07 03:20:06;;;;;;;8.27;3.50;;;9.90;90.30;10.50;99665.00;;;;4879351;28;86931;-64
2022/05/07 03:22:32;;;;;;;9.65;3.40;;;9.90;90.20;10.60;99679.00;;;;4884540;28;86683;-63
2022/05/07 03:24:59;;;;;;;13.23;4.15;;;10.00;89.60;10.70;99677.00;;;;4868083;28;87709;-63
2022/05/07 03:27:32;;;;;;;13.00;4.18;;;10.10;90.10;10.80;99679.00;;;;4868461;28;87887;-64
2022/05/07 03:29:58;;;;;;;11.20;4.03;;;10.10;89.90;10.90;99682.00;;;;4871838;28;87963;-64
2022/05/07 03:32:25;;;;;;;9.27;3.28;;;10.30;89.40;11.00;99674.00;;;;4883440;28;87069;-63
2022/05/07 03:34:57;;;;;;;10.10;3.20;;;10.30;89.20;11.10;99680.00;;;;4884188;28;87735;-63
2022/05/07 03:37:25;;;;;;;8.35;3.55;;;10.40;88.20;11.10;99668.00;;;;4867385;28;87841;-60
2022/05/07 03:39:52;;;;;;;9.35;3.47;;;10.40;88.30;11.20;99674.00;;;;4867338;28;86957;-65
2022/05/07 03:42:20;;;;;;;9.38;3.10;;;10.60;87.90;11.40;99678.00;;;;4851594;28;87163;-64
2022/05/07 03:44:47;;;;;;;12.05;3.10;;;10.70;86.90;11.50;99680.00;;;;4868138;28;87349;-64
2022/05/07 03:47:13;;;;;;;7.43;3.10;;;10.80;87.40;11.60;99687.00;;;;4885179;28;87437;-64
2022/05/07 03:49:42;;;;;;;7.43;3.25;;;10.90;86.30;11.80;99675.00;;;;4883619;28;87170;-63
2022/05/07 03:54:54;;;;;;;7.97;3.50;;;11.20;85.20;11.90;99683.00;;;;4882825;28;90438;-64
2022/05/07 03:57:20;;;;;;;8.02;3.35;;;11.20;82.00;11.90;99676.00;;;;4852000;28;88347;-64
2022/05/07 03:59:46;;;;;;;9.30;3.03;;;11.20;82.70;11.90;99676.00;;;;4868088;28;87012;-64
2022/05/07 04:02:12;;;;;;;5.15;2.80;;;11.20;84.50;12.10;99677.00;;;;4851842;28;87904;-65
2022/05/07 04:04:53;;;;;;;6.80;3.33;;;11.40;82.50;12.30;99673.00;;;;4867455;28;89619;-63
2022/05/07 04:07:20;;;;;;;9.07;3.40;;;11.50;83.00;12.30;99676.00;;;;4852339;28;88848;-63
2022/05/07 04:09:56;;;;;;;9.20;3.25;;;11.50;82.00;12.40;99672.00;;;;4871064;28;87097;-63
2022/05/07 04:12:27;;;;;;;6.68;3.10;;;11.60;80.10;12.40;99674.00;;;;4883767;28;87448;-63
2022/05/07 04:14:53;;;;;;;6.35;3.25;;;11.60;80.50;12.40;99670.00;;;;4887972;28;87716;-65
2022/05/07 04:17:22;;;;;;;7.97;3.53;;;11.70;80.90;12.30;99668.00;;;;4902732;28;87479;-65
2022/05/07 04:19:53;;;;;;;8.05;4.05;;;11.60;81.20;12.20;99676.00;;;;4886008;28;88052;-64
2022/05/07 04:22:20;;;;;;;9.65;4.00;;;11.60;80.60;12.20;99676.00;;;;4888162;28;87331;-61
2022/05/07 04:24:47;;;;;;;9.23;4.70;;;11.50;80.80;12.10;99666.00;;;;4882581;28;88654;-61
2022/05/07 04:27:13;;;;;;;9.75;4.22;;;11.50;80.80;12.40;99657.00;;;;4887046;28;87281;-60
2022/05/07 04:29:40;;;;;;;13.98;4.50;;;11.80;79.80;13.20;99669.00;;;;4886019;28;87055;-64
2022/05/07 04:32:14;;;;;;;10.32;5.22;;;12.50;78.10;14.50;99677.00;;;;4886395;28;87119;-64
2022/05/07 04:34:41;;;;;;;12.65;4.13;;;13.50;74.70;15.40;99672.00;;;;4885864;28;90649;-64
2022/05/07 04:37:08;;;;;;;12.05;4.05;;;14.30;69.50;15.90;99680.00;;;;4885446;28;87200;-65
2022/05/07 04:39:34;;;;;;;10.15;4.85;;;14.80;67.40;16.60;99673.00;;;;4885842;28;87053;-64
2022/05/07 04:42:05;;;;;;;9.27;3.72;;;15.40;64.30;17.00;99673.00;;;;4885274;28;87548;-64
2022/05/07 04:44:40;;;;;;;5.53;3.17;;;15.80;59.40;17.40;99678.00;;;;4887276;28;88586;-64
2022/05/07 04:47:15;;;;;;;9.05;3.20;;;16.20;58.50;17.80;99669.00;;;;4885837;28;88277;-64
2022/05/07 04:49:41;;;;;;;8.90;3.63;;;16.40;56.40;17.90;99670.00;;;;4860613;28;87000;-64
2022/05/07 04:52:08;;;;;;;11.25;3.22;;;16.70;55.50;18.00;99671.00;;;;4870162;28;87577;-64
2022/05/07 04:54:36;;;;;;;10.63;3.95;;;16.80;54.70;18.10;99664.00;;;;4885776;28;87820;-64
2022/05/07 04:57:05;;;;;;;9.38;3.30;;;16.90;53.60;18.20;99663.00;;;;4885843;28;87300;-65
2022/05/07 04:59:45;;;;;;;8.50;3.22;;;17.00;53.00;18.40;99660.00;;;;4870271;28;87411;-64
2022/05/07 05:02:16;;;;;;;8.80;3.22;;;17.20;52.50;18.30;99662.00;;;;4885977;28;87240;-64
2022/05/07 05:04:47;;;;;;;7.25;3.22;;;17.10;51.70;18.40;99663.00;;;;4885772;28;87659;-64
2022/05/07 05:07:17;;;;;;;8.73;2.97;;;17.20;51.90;18.40;99660.00;;;;4885969;28;87488;-64
2022/05/07 05:09:46;;;;;;;13.70;3.30;;;17.20;51.30;18.40;99661.00;;;;4901249;28;88183;-66
2022/05/07 05:12:17;;;;;;;11.35;3.72;;;17.20;50.60;18.20;99662.00;;;;4901186;28;87122;-64
2022/05/07 05:15:03;;;;;;;6.93;2.83;;;17.10;51.60;18.40;99651.00;;;;4885859;28;87530;-64
2022/05/07 05:17:43;;;;;;;9.20;3.17;;;17.20;50.90;18.40;99660.00;;;;4882646;28;87300;-63
2022/05/07 05:20:10;;;;;;;12.50;3.15;;;17.30;50.90;18.70;99657.00;;;;4886490;28;87017;-65
2022/05/07 05:22:49;;;;;;;10.82;3.53;;;17.50;50.50;19.00;99652.00;;;;4901844;28;86895;-64
2022/05/07 05:25:22;;;;;;;11.27;2.63;;;17.70;50.30;19.20;99659.00;;;;4885177;28;87637;-64
2022/05/07 05:27:49;;;;;;;10.73;3.08;;;17.90;49.20;18.60;99663.00;;;;4885933;28;89545;-64
2022/05/07 05:30:17;;;;;;;11.80;2.80;;;17.30;49.60;17.90;99660.00;;;;4885743;28;87023;-64
2022/05/07 05:32:45;;;;;;;8.07;3.22;;;16.80;50.50;17.80;99666.00;;;;4885492;28;87786;-64
2022/05/07 05:35:12;;;;;;;8.93;3.00;;;16.70;50.50;17.50;99658.00;;;;4883873;28;88796;-64
2022/05/07 05:37:44;;;;;;;5.82;2.92;;;16.50;51.60;17.30;99661.00;;;;4884692;28;89810;-64
2022/05/07 05:40:12;;;;;;;13.13;3.05;;;16.30;52.10;17.50;99657.00;;;;4885213;28;86968;-64
2022/05/07 05:42:44;;;;;;;16.90;3.08;;;16.50;51.90;17.50;99663.00;;;;4883942;28;88089;-64
2022/05/07 05:45:11;;;;;;;11.50;2.88;;;16.50;51.60;17.50;99661.00;;;;4869539;28;88483;-64
2022/05/07 05:47:41;;;;;;;6.10;2.63;;;16.50;51.50;17.50;99662.00;;;;4883470;28;89679;-65
2022/05/07 05:50:08;;;;;;;11.77;3.15;;;16.40;51.40;17.70;99668.00;;;;4882319;28;87543;-64
2022/05/07 05:52:40;;;;;;;9.48;3.10;;;16.70;51.00;18.00;99659.00;;;;4864290;29;86588;-64
2022/05/07 05:55:07;;;;;;;10.52;3.15;;;16.90;50.70;18.10;99664.00;;;;4898841;28;87980;-64
2022/05/07 05:57:34;;;;;;;14.43;2.85;;;17.10;50.80;18.10;99663.00;;;;4873158;28;87539;-64
2022/05/07 06:00:01;;;;;;;8.20;2.35;;;17.20;50.40;18.00;99664.00;;;;4902559;28;88413;-65
2022/05/07 06:02:29;;;;;;;11.73;2.75;;;16.90;50.30;17.90;99665.00;;;;4876276;28;86945;-64
2022/05/07 06:05:01;;;;;;;10.98;2.63;;;16.80;50.70;17.90;99659.00;;;;4883660;28;87604;-64
2022/05/07 06:07:30;;;;;;;7.13;2.72;;;16.80;50.50;17.90;99664.00;;;;4883501;28;88990;-64
2022/05/07 06:10:00;;;;;;;8.48;2.88;;;16.90;49.90;17.70;99655.00;;;;4884221;28;87428;-64
2022/05/07 06:12:30;;;;;;;6.95;2.88;;;16.70;50.20;17.20;99668.00;;;;4882938;28;87161;-64
2022/05/07 06:14:56;;;;;;;6.63;2.65;;;16.50;50.20;17.10;99660.00;;;;4884363;28;87501;-64
2022/05/07 06:17:27;;;;;;;7.38;2.55;;;16.50;50.30;17.20;99667.00;;;;4884413;28;87438;-64
2022/05/07 06:19:54;;;;;;;5.15;2.50;;;16.50;50.30;17.10;99675.00;;;;4884097;28;87320;-64
2022/05/07 06:22:20;;;;;;;10.40;3.20;;;16.40;50.20;17.10;99662.00;;;;4884706;28;87042;-63
2022/05/07 06:27:47;;;;;;;10.30;3.17;;;16.60;50.40;17.30;99674.00;;;;4900113;28;88041;-64
2022/05/07 06:30:19;;;;;;;6.70;2.70;;;16.60;50.20;17.30;99661.00;;;;4884718;28;87293;-64
2022/05/07 06:32:53;;;;;;;7.72;3.10;;;16.70;50.10;17.50;99655.00;;;;4884142;28;87465;-64
2022/05/07 06:35:21;;;;;;;8.75;2.50;;;16.90;49.70;17.60;99669.00;;;;4883268;28;87393;-64
2022/05/07 06:37:57;;;;;;;8.80;2.95;;;17.00;49.90;17.70;99658.00;;;;4883360;28;87650;-65
2022/05/07 06:40:25;;;;;;;8.80;2.83;;;17.10;48.70;17.70;99669.00;;;;4884276;28;87074;-64
2022/05/07 06:42:51;;;;;;;8.60;2.80;;;17.10;49.30;17.70;99658.00;;;;4882748;28;86531;-64
2022/05/07 06:45:25;;;;;;;9.80;3.10;;;17.00;48.40;17.70;99660.00;;;;4884314;28;87644;-64
2022/05/07 06:47:51;;;;;;;8.10;2.78;;;17.10;49.00;17.80;99664.00;;;;4874838;28;87424;-65
2022/05/07 06:50:18;;;;;;;8.90;3.58;;;17.10;48.10;17.90;99662.00;;;;4883197;28;87980;-64
2022/05/07 06:52:46;;;;;;;10.00;3.05;;;17.20;48.60;18.10;99656.00;;;;4883237;28;87087;-64
2022/05/07 06:55:19;;;;;;;8.48;3.08;;;17.40;48.40;18.10;99653.00;;;;4883892;28;87769;-65
2022/05/07 06:57:46;;;;;;;9.60;2.63;;;17.40;48.20;18.00;99666.00;;;;4884342;28;88526;-64
2022/05/07 07:00:14;;;;;;;8.52;2.72;;;17.30;47.20;18.30;99653.00;;;;4884601;28;87034;-64
2022/05/07 07:02:41;;;;;;;6.82;2.47;;;17.50;47.30;18.30;99653.00;;;;4883476;28;87436;-65
2022/05/07 07:05:08;;;;;;;5.03;2.38;;;17.60;46.80;18.30;99652.00;;;;4884289;28;87675;-66
2022/05/07 07:07:34;;;;;;;9.45;3.00;;;17.60;46.00;18.50;99651.00;;;;4883499;28;86898;-65
2022/05/07 07:10:00;;;;;;;10.10;2.85;;;17.70;46.40;18.50;99649.00;;;;4878142;28;87043;-65
2022/05/07 07:12:28;;;;;;;13.05;2.60;;;17.80;45.20;18.10;99654.00;;;;4875944;28;87110;-64
2022/05/07 07:14:54;;;;;;;7.47;2.42;;;17.40;45.30;18.20;99645.00;;;;4870047;28;88633;-64
2022/05/07 07:17:21;;;;;;;6.60;2.60;;;17.50;45.60;18.20;99650.00;;;;4870115;28;88254;-66
2022/05/07 07:19:47;;;;;;;7.55;2.05;;;17.70;46.10;18.40;99651.00;;;;4871409;28;87565;-64
2022/05/07 07:22:14;;;;;;;5.55;2.15;;;17.80;45.20;18.40;99650.00;;;;4878225;28;87164;-64
2022/05/07 07:24:40;;;;;;;8.15;2.85;;;17.80;44.80;18.30;99650.00;;;;4873066;28;87605;-65
2022/05/07 07:27:08;;;;;;;8.25;2.50;;;17.70;44.70;18.30;99639.00;;;;4845858;29;88663;-65
2022/05/07 07:29:35;;;;;;;6.57;2.42;;;17.70;44.50;18.20;99648.00;;;;4865978;28;88426;-64
2022/05/07 07:32:01;;;;;;;4.80;2.35;;;17.60;43.70;18.20;99647.00;;;;4881994;28;86397;-64
2022/05/07 07:34:27;;;;;;;9.27;2.40;;;17.70;44.20;18.30;99629.00;;;;4873682;28;87635;-64
2022/05/07 07:36:54;;;;;;;12.98;2.63;;;17.70;44.50;18.40;99635.00;;;;4875899;28;89413;-64
2022/05/07 07:39:20;;;;;;;7.00;2.47;;;17.80;45.40;18.40;99637.00;;;;4875523;28;88101;-64
2022/05/07 07:41:46;;;;;;;7.97;1.95;;;17.80;44.40;18.50;99634.00;;;;4879180;28;87109;-64
2022/05/07 07:44:13;;;;;;;8.38;2.03;;;17.90;43.10;18.30;99636.00;;;;4878312;28;87993;-65
2022/05/07 07:49:23;;;;;;;6.25;2.28;;;17.60;43.60;18.00;99632.00;;;;4861425;29;87223;-64
2022/05/07 07:51:50;;;;;;;8.82;2.80;;;17.40;43.80;17.80;99631.00;;;;4868133;29;87301;-64
2022/05/07 07:54:16;;;;;;;6.68;2.35;;;17.30;43.70;18.00;99634.00;;;;4879775;28;87632;-65
2022/05/07 07:56:43;;;;;;;8.00;2.38;;;17.40;43.60;18.10;99626.00;;;;4860765;29;86625;-64
2022/05/07 07:59:11;;;;;;;4.43;2.30;;;17.60;43.20;18.40;99620.00;;;;4881124;28;87002;-65
2022/05/07 08:01:37;;;;;;;7.72;2.50;;;17.80;42.40;18.60;99610.00;;;;4878702;28;87094;-65
2022/05/07 08:04:06;;;;;;;11.10;2.65;;;17.90;42.10;18.60;99617.00;;;;4871250;28;89628;-64
2022/05/07 08:06:33;;;;;;;3.85;1.83;;;18.00;42.60;18.50;99618.00;;;;4867640;28;88238;-64
2022/05/07 08:11:55;;;;;;;7.53;2.00;;;17.90;41.70;18.60;99612.00;;;;4866763;28;87266;-64
2022/05/07 08:14:21;;;;;;;4.13;1.73;;;17.90;41.70;18.70;99606.00;;;;4875532;28;88694;-64
2022/05/07 08:16:48;;;;;;;11.68;2.28;;;18.20;42.30;18.70;99617.00;;;;4881730;28;87188;-64
2022/05/07 08:19:15;;;;;;;6.97;2.13;;;18.00;40.20;18.50;99628.00;;;;4874316;28;86944;-64
2022/05/07 08:21:41;;;;;;;5.35;2.17;;;17.90;41.60;18.50;99616.00;;;;4851861;29;86305;-65
2022/05/07 08:24:07;;;;;;;4.70;1.98;;;17.80;42.00;18.60;99605.00;;;;4875728;28;87598;-64
2022/05/07 08:26:34;;;;;;;8.90;2.25;;;17.90;42.10;18.60;99606.00;;;;4859712;28;88580;-64
2022/05/07 08:29:00;;;;;;;4.53;1.90;;;18.00;42.50;18.80;99599.00;;;;4868053;28;88025;-65
2022/05/07 08:31:26;;;;;;;8.65;2.47;;;18.10;41.60;18.80;99594.00;;;;4871288;28;87524;-64
2022/05/07 08:33:54;;;;;;;7.47;2.30;;;18.20;42.00;19.00;99597.00;;;;4877238;28;87662;-64
2022/05/07 08:36:20;;;;;;;7.28;2.25;;;18.30;40.90;19.20;99615.00;;;;4875098;28;87254;-63
2022/05/07 08:38:46;;;;;;;6.10;2.58;;;18.50;41.40;19.20;99611.00;;;;4875318;28;87054;-64
2022/05/07 08:41:13;;;;;;;9.77;2.67;;;18.50;40.40;19.10;99602.00;;;;4851951;28;87213;-64
2022/05/07 08:43:42;;;;;;;9.73;2.30;;;18.40;39.40;19.10;99604.00;;;;4877155;28;88702;-64
2022/05/07 08:46:18;;;;;;;9.13;2.17;;;18.40;39.80;19.20;99595.00;;;;4851793;29;87512;-63
2022/05/07 08:48:47;;;;;;;13.15;2.83;;;18.50;40.10;19.00;99586.00;;;;4878508;28;87030;-64
2022/05/07 08:51:16;;;;;;;5.45;2.38;;;18.20;39.50;18.90;99595.00;;;;4868704;28;87069;-63
2022/05/07 08:53:43;;;;;;;8.85;2.58;;;18.20;39.40;19.00;99590.00;;;;4872036;28;88644;-64
2022/05/07 08:56:11;;;;;;;9.07;2.85;;;18.20;40.30;19.10;99587.00;;;;4847365;28;89356;-64
2022/05/07 08:58:38;;;;;;;12.10;1.98;;;18.20;40.00;19.30;99595.00;;;;4876185;28;87042;-64
2022/05/07 09:01:05;;;;;;;10.52;2.40;;;18.40;39.70;19.30;99592.00;;;;4881082;28;87384;-64
2022/05/07 09:03:47;;;;;;;7.60;2.47;;;18.50;39.80;19.40;99584.00;;;;4871124;28;88111;-64
2022/05/07 09:06:19;;;;;;;8.93;2.50;;;18.60;39.20;19.80;99595.00;;;;4878168;28;88339;-64
2022/05/07 09:08:47;;;;;;;7.97;2.38;;;18.80;39.70;19.90;99583.00;;;;4857751;28;87279;-64
2022/05/07 09:11:15;;;;;;;5.47;2.17;;;19.00;39.00;19.80;99590.00;;;;4855911;28;86410;-64
2022/05/07 09:13:41;;;;;;;9.07;2.40;;;19.00;38.90;19.70;99583.00;;;;4869144;28;88359;-64
2022/05/07 09:16:08;;;;;;;5.70;2.63;;;18.80;39.20;19.90;99571.00;;;;4885825;28;88527;-64
2022/05/07 09:18:35;;;;;;;8.32;2.63;;;19.00;40.20;20.00;99569.00;;;;4885147;28;88465;-64
2022/05/07 09:21:16;;;;;;;7.40;2.30;;;19.10;39.50;19.90;99573.00;;;;4886009;28;87045;-65
2022/05/07 09:24:03;;;;;;;;;;;19.00;39.80;20.00;99566.00;;;;4868966;28;87821;-65
2022/05/07 09:26:33;;;;;;;11.75;3.05;;;19.00;39.60;20.00;99552.00;;;;4886223;28;88222;-65
2022/05/07 09:29:00;;;;;;;6.25;2.35;;;19.10;39.20;19.80;99556.00;;;;4885709;28;87110;-64
2022/05/07 09:31:30;;;;;;;6.47;2.60;;;19.00;39.80;19.50;99565.00;;;;4885287;28;88109;-65
2022/05/07 09:36:44;;;;;;;3.08;2.25;;;18.80;40.10;19.90;99554.00;;;;4883299;28;86606;-64
2022/05/07 09:39:16;;;;;;;4.10;2.30;;;19.10;40.20;20.00;99547.00;;;;4884783;28;87051;-64
2022/05/07 09:41:43;;;;;;;7.68;2.78;;;19.10;39.50;19.80;99552.00;;;;4885556;28;87669;-65
2022/05/07 09:44:11;;;;;;;6.00;2.70;;;18.90;39.60;19.60;99564.00;;;;4866619;28;90033;-65
2022/05/07 09:46:39;;;;;;;6.63;2.60;;;18.80;39.80;19.80;99553.00;;;;4885366;28;88479;-64
2022/05/07 09:49:06;;;;;;;5.22;2.20;;;18.90;40.30;20.00;99551.00;;;;4885417;28;87522;-64
2022/05/07 09:51:33;;;;;;;8.50;2.83;;;19.10;39.30;20.30;99545.00;;;;4885367;28;87018;-64
2022/05/07 09:59:38;;;;;;;6.43;2.10;;;19.40;38.10;20.30;99555.00;;;;4885518;28;86967;-64
2022/05/07 10:02:34;;;;;;;6.78;2.15;;;19.50;38.40;20.20;99542.00;;;;4868105;28;86359;-65
2022/05/07 10:05:28;;;;;;;9.30;2.50;;;19.40;38.30;19.80;99552.00;;;;4882412;28;88446;-65
2022/05/07 10:08:29;;;;;;;7.50;2.13;;;19.00;38.70;19.80;99544.00;;;;4884661;28;87631;-64
2022/05/07 10:10:58;;;;;;;10.65;2.15;;;18.90;38.80;19.90;99543.00;;;;4865971;28;87848;-64
2022/05/07 10:13:25;;;;;;;9.10;2.88;;;19.00;39.20;20.10;99537.00;;;;4884569;28;87093;-64
2022/05/07 10:16:03;;;;;;;5.30;2.00;;;19.20;38.80;20.40;99526.00;;;;4884585;28;87624;-65
2022/05/07 10:18:43;;;;;;;6.65;2.45;;;19.50;39.00;20.40;99524.00;;;;4884575;28;87341;-64
2022/05/07 10:21:18;;;;;;;5.90;2.45;;;19.50;38.00;20.20;99544.00;;;;4883774;28;87049;-64
2022/05/07 10:24:03;;;;;;;4.95;2.42;;;19.30;38.40;20.00;99531.00;;;;4883486;28;87559;-65
2022/05/07 10:26:44;;;;;;;9.35;2.92;;;19.10;38.80;19.90;99530.00;;;;4884661;28;87654;-64
2022/05/07 10:29:27;;;;;;;4.95;2.25;;;19.10;38.50;20.10;99527.00;;;;4885422;28;87376;-64
2022/05/07 10:32:03;;;;;;;8.25;2.85;;;19.30;38.40;20.30;99512.00;;;;4881375;28;86992;-61
2022/05/07 10:34:29;;;;;;;3.53;2.33;;;19.50;38.60;20.40;99525.00;;;;4884402;28;87113;-64
2022/05/07 10:37:07;;;;;;;9.70;2.22;;;19.50;38.60;20.20;99514.00;;;;4883671;28;88629;-64
2022/05/07 10:39:36;;;;;;;6.15;2.40;;;19.40;38.70;20.40;99516.00;;;;4882919;28;88457;-64
2022/05/07 10:42:15;;;;;;;5.85;2.60;;;19.50;38.80;20.40;99512.00;;;;4884685;28;86874;-65
2022/05/07 10:44:42;;;;;;;5.47;2.17;;;19.50;37.70;20.40;99513.00;;;;4884203;28;87172;-64
2022/05/07 10:47:10;;;;;;;10.60;2.60;;;19.50;38.10;20.40;99507.00;;;;4878657;28;87831;-64
2022/05/07 10:49:56;;;;;;;7.35;2.45;;;19.50;38.40;20.40;99504.00;;;;4883350;28;89803;-64
2022/05/07 10:52:31;;;;;;;6.80;2.63;;;19.40;38.50;20.40;99514.00;;;;4884870;28;87468;-64
2022/05/07 10:55:27;;;;;;;4.18;2.22;;;19.60;38.30;20.60;99503.00;;;;4884673;28;86607;-65
2022/05/07 10:57:57;;;;;;;6.15;2.15;;;19.70;38.40;20.40;99493.00;;;;4875388;28;87627;-65
2022/05/07 11:00:24;;;;;;;8.05;2.53;;;19.60;38.00;20.60;99505.00;;;;4884233;28;88294;-65
2022/05/07 11:02:56;;;;;;;5.38;2.08;;;19.70;37.80;20.60;99494.00;;;;4883579;28;88165;-65
2022/05/07 11:05:31;;;;;;;9.82;2.42;;;19.60;38.10;20.60;99495.00;;;;4882848;28;87407;-64
2022/05/07 11:07:59;;;;;;;10.70;2.33;;;19.70;38.10;20.50;99489.00;;;;4883473;28;87018;-65
2022/05/07 11:10:26;;;;;;;13.75;2.70;;;19.50;38.40;20.40;99480.00;;;;4884330;28;87458;-65
2022/05/07 11:12:53;;;;;;;4.30;2.58;;;19.50;38.80;20.10;99485.00;;;;4884045;28;87202;-66
2022/05/07 11:15:25;;;;;;;6.32;2.20;;;19.20;38.30;20.10;99474.00;;;;4884532;28;86943;-66
2022/05/07 11:17:52;;;;;;;8.10;2.67;;;19.20;38.70;20.00;99472.00;;;;4886885;28;87567;-64
2022/05/07 11:20:32;;;;;;;3.30;1.85;;;19.10;38.70;19.90;99472.00;;;;4871563;28;87347;-64
2022/05/07 11:23:00;;;;;;;4.25;2.20;;;19.00;38.20;19.90;99478.00;;;;4886931;28;87002;-64
2022/05/07 11:25:27;;;;;;;12.60;3.15;;;19.00;38.20;20.10;99469.00;;;;4870147;28;86961;-64
2022/05/07 11:27:55;;;;;;;7.55;2.03;;;19.20;38.60;20.30;99468.00;;;;4885752;28;89028;-64
2022/05/07 11:30:22;;;;;;;7.50;2.13;;;19.40;37.90;20.40;99467.00;;;;4870439;28;89399;-64